createdAt,value
2023-04-16T00:00:29.661Z,25.3189
2023-04-16T00:01:33.561Z,25.3127
2023-04-16T00:02:37.624Z,25.3471
2023-04-16T00:03:41.815Z,25.3498
2023-04-16T00:04:45.863Z,25.3730
2023-04-16T00:05:49.746Z,25.3725
2023-04-16T00:06:53.655Z,25.3750
2023-04-16T00:07:57.530Z,25.3685
2023-04-16T00:09:01.414Z,25.3959
2023-04-16T00:10:05.333Z,25.3959
2023-04-16T00:11:09.193Z,25.3730
2023-04-16T00:12:13.083Z,25.3380
2023-04-16T00:13:16.985Z,25.3718
2023-04-16T00:14:20.877Z,25.3925
2023-04-16T00:15:24.784Z,25.3411
2023-04-16T00:16:28.995Z,25.3175
2023-04-16T00:17:32.963Z,25.3144
2023-04-16T00:18:36.841Z,25.2771
2023-04-16T00:19:40.742Z,25.2997
2023-04-16T00:20:44.615Z,25.2960
2023-04-16T00:21:48.754Z,25.3091
2023-04-16T00:22:52.652Z,25.3233
2023-04-16T00:23:56.745Z,25.3233
2023-04-16T00:25:00.646Z,25.3549
2023-04-16T00:26:04.555Z,25.3033
2023-04-16T00:27:08.440Z,25.3109
2023-04-16T00:28:12.350Z,25.2980
2023-04-16T00:29:16.236Z,25.3329
2023-04-16T00:30:20.132Z,25.3247
2023-04-16T00:31:24.350Z,25.3175
2023-04-16T00:32:28.379Z,25.3576
2023-04-16T00:33:32.287Z,25.3763
2023-04-16T00:34:32.496Z,25.3690
2023-04-16T00:35:36.392Z,25.3549
2023-04-16T00:36:40.329Z,25.3839
2023-04-16T00:37:44.206Z,25.3810
2023-04-16T00:38:48.320Z,25.3710
2023-04-16T00:39:52.231Z,25.3839
2023-04-16T00:40:56.100Z,25.3605
2023-04-16T00:41:59.995Z,25.3280
2023-04-16T00:43:03.875Z,25.2977
2023-04-16T00:44:07.791Z,25.3218
2023-04-16T00:45:11.676Z,25.3336
2023-04-16T00:46:15.610Z,25.3474
2023-04-16T00:47:19.484Z,25.3167
2023-04-16T00:48:23.378Z,25.3200
2023-04-16T00:49:27.278Z,25.3667
2023-04-16T00:50:31.160Z,25.3387
2023-04-16T00:51:35.060Z,25.3347
2023-04-16T00:52:38.936Z,25.3458
2023-04-16T00:53:42.838Z,25.3325
2023-04-16T00:54:46.720Z,25.3369
2023-04-16T00:55:50.634Z,25.2915
2023-04-16T00:56:54.503Z,25.3431
2023-04-16T00:57:58.410Z,25.3220
2023-04-16T00:59:02.328Z,25.2848
2023-04-16T01:00:06.227Z,25.3031
2023-04-16T01:01:10.138Z,25.3345
2023-04-16T01:02:14.108Z,25.3224
2023-04-16T01:03:18.038Z,25.3086
2023-04-16T01:04:22.020Z,25.3138
2023-04-16T01:05:25.898Z,25.3282
2023-04-16T01:06:29.804Z,25.3258
2023-04-16T01:07:33.690Z,25.3216
2023-04-16T01:08:37.597Z,25.3060
2023-04-16T01:09:41.520Z,25.3038
2023-04-16T01:10:45.410Z,25.3282
2023-04-16T01:11:49.310Z,25.2735
2023-04-16T01:12:53.202Z,25.2701
2023-04-16T01:13:57.105Z,25.2768
2023-04-16T01:15:00.995Z,25.2688
2023-04-16T01:16:04.960Z,25.2548
2023-04-16T01:17:09.039Z,25.2871
2023-04-16T01:18:12.967Z,25.2786
2023-04-16T01:19:16.814Z,25.2917
2023-04-16T01:20:20.713Z,25.2557
2023-04-16T01:21:24.588Z,25.2866
2023-04-16T01:22:28.507Z,25.2973
2023-04-16T01:23:32.371Z,25.2581
2023-04-16T01:24:36.287Z,25.2392
2023-04-16T01:25:40.157Z,25.2461
2023-04-16T01:26:44.058Z,25.3084
2023-04-16T01:27:47.936Z,25.2933
2023-04-16T01:28:52.157Z,25.2973
2023-04-16T01:29:56.052Z,25.2708
2023-04-16T01:30:59.946Z,25.3098
2023-04-16T01:32:04.139Z,25.2866
2023-04-16T01:33:08.031Z,25.2697
2023-04-16T01:34:11.937Z,25.2510
2023-04-16T01:35:15.821Z,25.2379
2023-04-16T01:36:19.731Z,25.1969
2023-04-16T01:37:23.617Z,25.2045
2023-04-16T01:38:27.515Z,25.1976
2023-04-16T01:39:31.602Z,25.1940
2023-04-16T01:40:35.511Z,25.1943
2023-04-16T01:41:39.406Z,25.2047
2023-04-16T01:42:43.309Z,25.2132
2023-04-16T01:43:47.423Z,25.2350
2023-04-16T01:44:51.308Z,25.2421
2023-04-16T01:45:55.207Z,25.2434
2023-04-16T01:46:59.140Z,25.2472
2023-04-16T01:48:03.084Z,25.2272
2023-04-16T01:49:07.047Z,25.2361
2023-04-16T01:50:11.012Z,25.2599
2023-04-16T01:51:14.913Z,25.2477
2023-04-16T01:52:18.795Z,25.2303
2023-04-16T01:53:22.692Z,25.2210
2023-04-16T01:54:26.805Z,25.2397
2023-04-16T01:55:30.710Z,25.2121
2023-04-16T01:56:34.588Z,25.2098
2023-04-16T01:57:38.509Z,25.2049
2023-04-16T01:58:42.379Z,25.2245
2023-04-16T01:59:46.277Z,25.2463
2023-04-16T02:00:50.167Z,25.2381
2023-04-16T02:01:54.099Z,25.2305
2023-04-16T02:02:58.069Z,25.2394
2023-04-16T02:04:02.339Z,25.2612
2023-04-16T02:05:07.097Z,25.2661
2023-04-16T02:06:07.810Z,25.2833
2023-04-16T02:07:11.730Z,25.2501
2023-04-16T02:08:15.605Z,25.2083
2023-04-16T02:09:19.718Z,25.2481
2023-04-16T02:10:31.156Z,25.2403
2023-04-16T02:11:24.457Z,25.2700
2023-04-16T02:12:28.363Z,25.2621
2023-04-16T02:13:32.281Z,25.2742
2023-04-16T02:14:36.475Z,25.2532
2023-04-16T02:15:40.347Z,25.2530
2023-04-16T02:16:40.877Z,25.2680
2023-04-16T02:17:44.854Z,25.2479
2023-04-16T02:18:48.718Z,25.2370
2023-04-16T02:19:52.646Z,25.2248
2023-04-16T02:20:56.524Z,25.2274
2023-04-16T02:22:00.428Z,25.2615
2023-04-16T02:23:04.289Z,25.2325
2023-04-16T02:24:08.203Z,25.1934
2023-04-16T02:25:12.076Z,25.2032
2023-04-16T02:26:15.980Z,25.2121
2023-04-16T02:27:19.884Z,25.2234
2023-04-16T02:28:23.758Z,25.2183
2023-04-16T02:29:27.817Z,25.2281
2023-04-16T02:30:31.719Z,25.2274
2023-04-16T02:31:35.667Z,25.2673
2023-04-16T02:32:39.574Z,25.2468
2023-04-16T02:33:43.478Z,25.2014
2023-04-16T02:34:47.381Z,25.1785
2023-04-16T02:35:51.271Z,25.2061
2023-04-16T02:36:55.171Z,25.2185
2023-04-16T02:37:59.080Z,25.2363
2023-04-16T02:39:02.949Z,25.1938
2023-04-16T02:40:06.832Z,25.2281
2023-04-16T02:41:10.736Z,25.2610
2023-04-16T02:42:14.626Z,25.2521
2023-04-16T02:43:18.524Z,25.2759
2023-04-16T02:44:22.652Z,25.2568
2023-04-16T02:45:26.538Z,25.2579
2023-04-16T02:46:30.912Z,25.2648
2023-04-16T02:47:34.823Z,25.2570
2023-04-16T02:48:38.731Z,25.2855
2023-04-16T02:49:42.622Z,25.3035
2023-04-16T02:50:46.509Z,25.2702
2023-04-16T02:51:50.615Z,25.2357
2023-04-16T02:52:54.509Z,25.2054
2023-04-16T02:53:58.394Z,25.2363
2023-04-16T02:55:02.307Z,25.2577
2023-04-16T02:56:06.210Z,25.2755
2023-04-16T02:57:10.340Z,25.2779
2023-04-16T02:58:14.235Z,25.3249
2023-04-16T02:59:18.421Z,25.2957
2023-04-16T03:00:22.334Z,25.2597
2023-04-16T03:01:26.277Z,25.2980
2023-04-16T03:02:30.263Z,25.3236
2023-04-16T03:03:34.143Z,25.3369
2023-04-16T03:04:38.458Z,25.3191
2023-04-16T03:05:42.493Z,25.3031
2023-04-16T03:06:46.381Z,25.2686
2023-04-16T03:07:50.268Z,25.2535
2023-04-16T03:08:54.151Z,25.2955
2023-04-16T03:09:58.054Z,25.2713
2023-04-16T03:11:01.934Z,25.2884
2023-04-16T03:12:06.035Z,25.2828
2023-04-16T03:13:09.930Z,25.2150
2023-04-16T03:14:14.030Z,25.2192
2023-04-16T03:15:17.969Z,25.1406
2023-04-16T03:16:22.104Z,25.0349
2023-04-16T03:17:26.028Z,25.0329
2023-04-16T03:18:29.899Z,25.0957
2023-04-16T03:19:34.004Z,25.0863
2023-04-16T03:20:37.923Z,25.0349
2023-04-16T03:21:41.837Z,24.9742
2023-04-16T03:22:45.749Z,24.9655
2023-04-16T03:23:49.647Z,24.9797
2023-04-16T03:24:53.558Z,24.9753
2023-04-16T03:25:57.486Z,24.9695
2023-04-16T03:27:01.609Z,24.9426
2023-04-16T03:28:05.513Z,24.9517
2023-04-16T03:29:05.860Z,24.9803
2023-04-16T03:30:09.758Z,24.9764
2023-04-16T03:31:13.931Z,24.9976
2023-04-16T03:32:17.858Z,24.9976
2023-04-16T03:33:21.736Z,24.9880
2023-04-16T03:34:25.626Z,25.0229
2023-04-16T03:35:29.532Z,25.0158
2023-04-16T03:36:33.674Z,25.0216
2023-04-16T03:37:37.573Z,25.0218
2023-04-16T03:38:41.484Z,25.0254
2023-04-16T03:39:45.623Z,25.0260
2023-04-16T03:40:49.486Z,24.9900
2023-04-16T03:41:53.414Z,25.0009
2023-04-16T03:42:57.300Z,25.0062
2023-04-16T03:44:01.405Z,24.9809
2023-04-16T03:45:05.316Z,24.9887
2023-04-16T03:46:09.243Z,25.0401
2023-04-16T03:47:13.367Z,25.0614
2023-04-16T03:48:17.267Z,25.0532
2023-04-16T03:49:21.358Z,25.0694
2023-04-16T03:50:25.296Z,25.0964
2023-04-16T03:51:29.149Z,25.0467
2023-04-16T03:52:33.051Z,25.0788
2023-04-16T03:53:36.921Z,25.0892
2023-04-16T03:54:40.824Z,25.0599
2023-04-16T03:55:44.692Z,25.1224
2023-04-16T03:56:48.892Z,25.1008
2023-04-16T03:57:52.811Z,25.0790
2023-04-16T03:58:56.699Z,25.0734
2023-04-16T04:00:00.569Z,25.0944
2023-04-16T04:01:04.480Z,25.1206
2023-04-16T04:02:08.461Z,25.0743
2023-04-16T04:03:12.654Z,25.1104
2023-04-16T04:04:16.911Z,25.1375
2023-04-16T04:05:20.821Z,25.1371
2023-04-16T04:06:24.744Z,25.0977
2023-04-16T04:07:28.632Z,25.0837
2023-04-16T04:08:32.532Z,25.1251
2023-04-16T04:09:36.637Z,25.1008
2023-04-16T04:10:40.530Z,25.1322
2023-04-16T04:11:44.693Z,25.1315
2023-04-16T04:12:48.568Z,25.1644
2023-04-16T04:13:52.465Z,25.1262
2023-04-16T04:14:56.349Z,25.0995
2023-04-16T04:16:00.260Z,25.1219
2023-04-16T04:17:04.143Z,25.1602
2023-04-16T04:18:08.044Z,25.1667
2023-04-16T04:19:12.338Z,25.1916
2023-04-16T04:20:16.243Z,25.1700
2023-04-16T04:21:20.153Z,25.1983
2023-04-16T04:22:24.067Z,25.2199
2023-04-16T04:23:27.948Z,25.2595
2023-04-16T04:24:28.291Z,25.2865
2023-04-16T04:25:32.172Z,25.3211
2023-04-16T04:26:36.132Z,25.3305
2023-04-16T04:27:39.971Z,25.3162
2023-04-16T04:28:43.847Z,25.2993
2023-04-16T04:29:47.958Z,25.3169
2023-04-16T04:30:51.845Z,25.3298
2023-04-16T04:31:55.993Z,25.3318
2023-04-16T04:32:59.945Z,25.2989
2023-04-16T04:34:04.128Z,25.2942
2023-04-16T04:35:08.013Z,25.3173
2023-04-16T04:36:11.891Z,25.2933
2023-04-16T04:37:15.791Z,25.2739
2023-04-16T04:38:19.675Z,25.2423
2023-04-16T04:39:23.555Z,25.2668
2023-04-16T04:40:27.478Z,25.2579
2023-04-16T04:41:31.585Z,25.2377
2023-04-16T04:42:35.479Z,25.2421
2023-04-16T04:43:39.391Z,25.2245
2023-04-16T04:44:43.301Z,25.2038
2023-04-16T04:45:47.300Z,25.1834
2023-04-16T04:46:51.459Z,25.1767
2023-04-16T04:47:55.391Z,25.1769
2023-04-16T04:48:59.502Z,25.1900
2023-04-16T04:50:03.449Z,25.1707
2023-04-16T04:51:07.333Z,25.1753
2023-04-16T04:52:11.243Z,25.1513
2023-04-16T04:53:15.200Z,25.1653
2023-04-16T04:54:19.060Z,25.1491
2023-04-16T04:55:22.968Z,25.1422
2023-04-16T04:56:26.907Z,25.1489
2023-04-16T04:57:30.809Z,25.1239
2023-04-16T04:58:34.922Z,25.1142
2023-04-16T04:59:38.812Z,25.1422
2023-04-16T05:00:42.691Z,25.1353
2023-04-16T05:01:46.881Z,25.1242
2023-04-16T05:02:50.906Z,25.0848
2023-04-16T05:03:55.139Z,25.0810
2023-04-16T05:04:59.044Z,25.0984
2023-04-16T05:06:02.930Z,25.0850
2023-04-16T05:07:06.827Z,25.0670
2023-04-16T05:08:10.710Z,25.0579
2023-04-16T05:09:14.600Z,25.0274
2023-04-16T05:10:18.482Z,25.0527
2023-04-16T05:11:22.589Z,25.0721
2023-04-16T05:12:26.480Z,25.0903
2023-04-16T05:13:30.367Z,25.1297
2023-04-16T05:14:34.257Z,25.0937
2023-04-16T05:15:38.131Z,25.0830
2023-04-16T05:16:42.019Z,25.0739
2023-04-16T05:17:45.909Z,25.1195
2023-04-16T05:18:49.838Z,25.1204
2023-04-16T05:19:53.756Z,25.1591
2023-04-16T05:20:57.619Z,25.1133
2023-04-16T05:22:01.493Z,25.1520
2023-04-16T05:23:05.405Z,25.1627
2023-04-16T05:24:09.706Z,25.1600
2023-04-16T05:25:13.591Z,25.2021
2023-04-16T05:26:17.688Z,25.1911
2023-04-16T05:27:21.561Z,25.2012
2023-04-16T05:28:25.458Z,25.1976
2023-04-16T05:29:29.341Z,25.1914
2023-04-16T05:30:33.266Z,25.2227
2023-04-16T05:31:37.334Z,25.2788
2023-04-16T05:32:41.267Z,25.2951
2023-04-16T05:33:45.421Z,25.2506
2023-04-16T05:34:49.291Z,25.2161
2023-04-16T05:35:53.204Z,25.2150
2023-04-16T05:36:57.105Z,25.2009
2023-04-16T05:38:01.007Z,25.2110
2023-04-16T05:39:05.148Z,25.2305
2023-04-16T05:40:09.031Z,25.2434
2023-04-16T05:41:12.929Z,25.2227
2023-04-16T05:42:16.848Z,25.2199
2023-04-16T05:43:20.736Z,25.2401
2023-04-16T05:44:24.661Z,25.2279
2023-04-16T05:45:28.545Z,25.2223
2023-04-16T05:46:32.771Z,25.2503
2023-04-16T05:47:36.738Z,25.2942
2023-04-16T05:48:40.813Z,25.2819
2023-04-16T05:49:44.858Z,25.2877
2023-04-16T05:50:48.729Z,25.3340
2023-04-16T05:51:52.635Z,25.3144
2023-04-16T05:52:56.537Z,25.2928
2023-04-16T05:54:00.679Z,25.3443
2023-04-16T05:55:04.602Z,25.3327
2023-04-16T05:56:08.725Z,25.3320
2023-04-16T05:57:12.624Z,25.3351
2023-04-16T05:58:16.496Z,25.3632
2023-04-16T05:59:20.385Z,25.3805
2023-04-16T06:00:24.280Z,25.3747
2023-04-16T06:01:28.425Z,25.3763
2023-04-16T06:02:32.427Z,25.3520
2023-04-16T06:03:36.720Z,25.3890
2023-04-16T06:04:40.634Z,25.3974
2023-04-16T06:05:44.571Z,25.3560
2023-04-16T06:06:48.423Z,25.3896
2023-04-16T06:07:52.323Z,25.3823
2023-04-16T06:08:56.207Z,25.3939
2023-04-16T06:10:00.110Z,25.4063
2023-04-16T06:11:04.232Z,25.3623
2023-04-16T06:12:08.158Z,25.3652
2023-04-16T06:13:12.054Z,25.3529
2023-04-16T06:14:16.165Z,25.3707
2023-04-16T06:15:20.069Z,25.3905
2023-04-16T06:16:24.015Z,25.3972
2023-04-16T06:17:27.915Z,25.3930
2023-04-16T06:18:32.030Z,25.3950
2023-04-16T06:19:35.916Z,25.3714
2023-04-16T06:20:39.824Z,25.4026
2023-04-16T06:21:43.730Z,25.3796
2023-04-16T06:22:47.603Z,25.3937
2023-04-16T06:23:51.853Z,25.4070
2023-04-16T06:24:55.746Z,25.4468
2023-04-16T06:25:59.624Z,25.4477
2023-04-16T06:27:03.664Z,25.4184
2023-04-16T06:28:07.563Z,25.4277
2023-04-16T06:29:11.765Z,25.4350
2023-04-16T06:30:15.724Z,25.4310
2023-04-16T06:31:19.879Z,25.4335
2023-04-16T06:32:23.816Z,25.4324
2023-04-16T06:33:27.725Z,25.4206
2023-04-16T06:34:31.623Z,25.4239
2023-04-16T06:35:35.509Z,25.4493
2023-04-16T06:36:39.408Z,25.4531
2023-04-16T06:37:43.306Z,25.4537
2023-04-16T06:38:47.178Z,25.4457
2023-04-16T06:39:51.053Z,25.4459
2023-04-16T06:40:55.158Z,25.4446
2023-04-16T06:41:59.055Z,25.4526
2023-04-16T06:43:02.935Z,25.4515
2023-04-16T06:44:06.830Z,25.4495
2023-04-16T06:45:10.699Z,25.4566
2023-04-16T06:46:14.828Z,25.4762
2023-04-16T06:47:18.766Z,25.4791
2023-04-16T06:48:22.910Z,25.5089
2023-04-16T06:49:26.814Z,25.4918
2023-04-16T06:50:30.696Z,25.4813
2023-04-16T06:51:34.587Z,25.4795
2023-04-16T06:52:38.490Z,25.4809
2023-04-16T06:53:42.616Z,25.4537
2023-04-16T06:54:46.506Z,25.4566
2023-04-16T06:55:50.390Z,25.4388
2023-04-16T06:56:54.308Z,25.4070
2023-04-16T06:57:58.198Z,25.3994
2023-04-16T06:59:02.344Z,25.3861
2023-04-16T07:00:06.249Z,25.3908
2023-04-16T07:01:10.405Z,25.4199
2023-04-16T07:02:14.380Z,25.4337
2023-04-16T07:03:18.518Z,25.3881
2023-04-16T07:04:22.491Z,25.3801
2023-04-16T07:05:26.377Z,25.3990
2023-04-16T07:06:30.286Z,25.3932
2023-04-16T07:07:34.184Z,25.3910
2023-04-16T07:08:38.418Z,25.3805
2023-04-16T07:09:42.301Z,25.3465
2023-04-16T07:10:46.415Z,25.3770
2023-04-16T07:11:50.322Z,25.3968
2023-04-16T07:12:54.209Z,25.4163
2023-04-16T07:13:58.120Z,25.3934
2023-04-16T07:15:01.986Z,25.3839
2023-04-16T07:16:05.910Z,25.3859
2023-04-16T07:17:09.778Z,25.4148
2023-04-16T07:18:13.958Z,25.4184
2023-04-16T07:19:17.998Z,25.3923
2023-04-16T07:20:21.895Z,25.4159
2023-04-16T07:21:25.793Z,25.4155
2023-04-16T07:22:29.696Z,25.4090
2023-04-16T07:23:33.633Z,25.4219
2023-04-16T07:24:37.513Z,25.4219
2023-04-16T07:25:41.481Z,25.4155
2023-04-16T07:26:45.384Z,25.4288
2023-04-16T07:27:49.273Z,25.4253
2023-04-16T07:28:53.182Z,25.4551
2023-04-16T07:29:57.084Z,25.4686
2023-04-16T07:31:00.974Z,25.4771
2023-04-16T07:32:04.990Z,25.4569
2023-04-16T07:33:09.050Z,25.4370
2023-04-16T07:34:12.913Z,25.4026
2023-04-16T07:35:16.823Z,25.4030
2023-04-16T07:36:20.712Z,25.4026
2023-04-16T07:37:24.615Z,25.3912
2023-04-16T07:38:28.754Z,25.3968
2023-04-16T07:39:32.688Z,25.3799
2023-04-16T07:40:36.704Z,25.3643
2023-04-16T07:41:40.591Z,25.3576
2023-04-16T07:42:44.452Z,25.4163
2023-04-16T07:43:48.334Z,25.4139
2023-04-16T07:44:52.240Z,25.3912
2023-04-16T07:45:56.490Z,25.3578
2023-04-16T07:47:00.464Z,25.3436
2023-04-16T07:48:04.774Z,25.3347
2023-04-16T07:49:08.876Z,25.3516
2023-04-16T07:50:12.863Z,25.3365
2023-04-16T07:51:16.759Z,25.3863
2023-04-16T07:52:20.668Z,25.3756
2023-04-16T07:53:24.555Z,25.3222
2023-04-16T07:54:29.175Z,25.3494
2023-04-16T07:55:33.108Z,25.3572
2023-04-16T07:56:37.052Z,25.3943
2023-04-16T07:57:40.917Z,25.4032
2023-04-16T07:58:44.834Z,25.4384
2023-04-16T07:59:48.705Z,25.4288
2023-04-16T08:00:52.815Z,25.4315
2023-04-16T08:01:56.727Z,25.4348
2023-04-16T08:03:00.883Z,25.4295
2023-04-16T08:04:04.995Z,25.4137
2023-04-16T08:05:08.959Z,25.4070
2023-04-16T08:06:12.838Z,25.4248
2023-04-16T08:07:16.753Z,25.4406
2023-04-16T08:08:16.915Z,25.4722
2023-04-16T08:09:20.803Z,25.4611
2023-04-16T08:10:24.899Z,25.4451
2023-04-16T08:11:28.816Z,25.4635
2023-04-16T08:12:32.715Z,25.5174
2023-04-16T08:13:36.614Z,25.5069
2023-04-16T08:14:40.482Z,25.4764
2023-04-16T08:15:44.634Z,25.4584
2023-04-16T08:16:48.533Z,25.4762
2023-04-16T08:17:52.756Z,25.4573
2023-04-16T08:18:56.609Z,25.4355
2023-04-16T08:20:00.506Z,25.4842
2023-04-16T08:21:04.392Z,25.4896
2023-04-16T08:22:08.316Z,25.5107
2023-04-16T08:23:12.195Z,25.5022
2023-04-16T08:24:16.127Z,25.4829
2023-04-16T08:25:20.000Z,25.4586
2023-04-16T08:26:24.002Z,25.4455
2023-04-16T08:27:27.901Z,25.5089
2023-04-16T08:28:32.024Z,25.4691
2023-04-16T08:29:35.935Z,25.4528
2023-04-16T08:30:39.841Z,25.4715
2023-04-16T08:31:43.775Z,25.4827
2023-04-16T08:32:50.045Z,25.4657
2023-04-16T08:33:48.852Z,25.4950
2023-04-16T08:34:52.753Z,25.5156
2023-04-16T08:35:56.991Z,25.5427
2023-04-16T08:37:00.994Z,25.5065
2023-04-16T08:38:04.912Z,25.4969
2023-04-16T08:39:08.913Z,25.5485
2023-04-16T08:40:13.083Z,25.5245
2023-04-16T08:41:17.218Z,25.5167
2023-04-16T08:42:21.131Z,25.5528
2023-04-16T08:43:25.013Z,25.5036
2023-04-16T08:44:28.939Z,25.4780
2023-04-16T08:45:33.118Z,25.5220
2023-04-16T08:46:37.024Z,25.5608
2023-04-16T08:47:40.911Z,25.5621
2023-04-16T08:48:44.787Z,25.6037
2023-04-16T08:49:48.721Z,25.5476
2023-04-16T08:50:52.580Z,25.5625
2023-04-16T08:51:54.080Z,25.5183
2023-04-16T08:52:58.213Z,25.5710
2023-04-16T08:54:02.310Z,25.6491
2023-04-16T08:55:06.221Z,25.6796
2023-04-16T08:56:10.104Z,25.6956
2023-04-16T08:57:13.987Z,25.6449
2023-04-16T08:58:18.202Z,25.6480
2023-04-16T08:59:22.089Z,25.6703
2023-04-16T09:00:26.218Z,25.7043
2023-04-16T09:01:30.145Z,25.6531
2023-04-16T09:02:34.134Z,25.6903
2023-04-16T09:03:38.345Z,25.7350
2023-04-16T09:04:42.383Z,25.7063
2023-04-16T09:05:46.280Z,25.7488
2023-04-16T09:06:50.163Z,25.7226
2023-04-16T09:07:54.059Z,25.7321
2023-04-16T09:08:57.953Z,25.7379
2023-04-16T09:10:01.914Z,25.7170
2023-04-16T09:11:05.814Z,25.7174
2023-04-16T09:12:09.700Z,25.6845
2023-04-16T09:13:13.596Z,25.7339
2023-04-16T09:14:17.482Z,25.7711
2023-04-16T09:15:21.598Z,25.7764
2023-04-16T09:16:25.534Z,25.7728
2023-04-16T09:17:29.497Z,25.7399
2023-04-16T09:18:33.372Z,25.7802
2023-04-16T09:19:37.270Z,25.7706
2023-04-16T09:20:41.320Z,25.7610
2023-04-16T09:21:45.207Z,25.7513
2023-04-16T09:22:49.104Z,25.7644
2023-04-16T09:23:52.984Z,25.7499
2023-04-16T09:24:56.885Z,25.7610
2023-04-16T09:26:00.962Z,25.7911
2023-04-16T09:27:04.862Z,25.8000
2023-04-16T09:28:09.016Z,25.7684
2023-04-16T09:29:12.887Z,25.8089
2023-04-16T09:30:16.793Z,25.8249
2023-04-16T09:31:21.013Z,25.8111
2023-04-16T09:32:24.911Z,25.7764
2023-04-16T09:33:28.808Z,25.8011
2023-04-16T09:34:32.703Z,25.8436
2023-04-16T09:35:36.849Z,25.8772
2023-04-16T09:36:40.737Z,25.8429
2023-04-16T09:37:44.875Z,25.8071
2023-04-16T09:38:48.751Z,25.7820
2023-04-16T09:39:52.655Z,25.7735
2023-04-16T09:40:56.723Z,25.7550
2023-04-16T09:42:00.613Z,25.7811
2023-04-16T09:43:05.018Z,25.7893
2023-04-16T09:44:08.918Z,25.8387
2023-04-16T09:45:12.791Z,25.8759
2023-04-16T09:46:16.704Z,25.8621
2023-04-16T09:47:20.598Z,25.8512
2023-04-16T09:48:24.476Z,25.8721
2023-04-16T09:49:28.407Z,25.8503
2023-04-16T09:50:32.315Z,25.8049
2023-04-16T09:51:36.220Z,25.8320
2023-04-16T09:52:40.341Z,25.8058
2023-04-16T09:53:44.220Z,25.7886
2023-04-16T09:54:48.116Z,25.8603
2023-04-16T09:55:52.248Z,25.7869
2023-04-16T09:56:56.161Z,25.8249
2023-04-16T09:58:00.084Z,25.8378
2023-04-16T09:59:04.006Z,25.8612
2023-04-16T10:00:07.926Z,25.8870
2023-04-16T10:01:12.006Z,25.8645
2023-04-16T10:02:16.560Z,25.8921
2023-04-16T10:03:20.657Z,25.8776
2023-04-16T10:04:24.572Z,25.8768
2023-04-16T10:05:28.525Z,25.8601
2023-04-16T10:06:32.407Z,25.7906
2023-04-16T10:07:36.528Z,25.8102
2023-04-16T10:08:40.408Z,25.8594
2023-04-16T10:09:44.272Z,25.9044
2023-04-16T10:10:48.153Z,25.9638
2023-04-16T10:11:52.051Z,25.9517
2023-04-16T10:12:56.188Z,25.9453
2023-04-16T10:14:00.172Z,25.9662
2023-04-16T10:15:04.311Z,25.9838
2023-04-16T10:16:08.201Z,25.9802
2023-04-16T10:17:12.117Z,26.0000
2023-04-16T10:18:16.008Z,25.9642
2023-04-16T10:19:19.929Z,25.9397
2023-04-16T10:20:23.823Z,25.9486
2023-04-16T10:21:27.740Z,25.9642
2023-04-16T10:22:31.614Z,25.9996
2023-04-16T10:23:35.508Z,25.9793
2023-04-16T10:24:39.417Z,25.9951
2023-04-16T10:25:43.545Z,25.9744
2023-04-16T10:26:47.428Z,25.9905
2023-04-16T10:27:51.560Z,25.9907
2023-04-16T10:28:55.456Z,25.9805
2023-04-16T10:29:59.342Z,25.9664
2023-04-16T10:31:03.281Z,25.9651
2023-04-16T10:32:07.159Z,26.0230
2023-04-16T10:33:11.093Z,26.0190
2023-04-16T10:34:14.964Z,25.9833
2023-04-16T10:35:18.870Z,26.0069
2023-04-16T10:36:22.779Z,25.9822
2023-04-16T10:37:26.976Z,25.9586
2023-04-16T10:38:30.880Z,25.9533
2023-04-16T10:39:34.805Z,25.9836
2023-04-16T10:40:38.725Z,25.9600
2023-04-16T10:41:42.628Z,26.0049
2023-04-16T10:42:46.535Z,25.9751
2023-04-16T10:43:50.450Z,25.9858
2023-04-16T10:44:54.342Z,25.9802
2023-04-16T10:45:58.482Z,25.9520
2023-04-16T10:47:02.418Z,25.9598
2023-04-16T10:48:06.350Z,25.9689
2023-04-16T10:49:10.319Z,25.9586
2023-04-16T10:50:14.545Z,25.9473
2023-04-16T10:51:18.466Z,25.9489
2023-04-16T10:52:22.393Z,25.9615
2023-04-16T10:53:26.269Z,25.9406
2023-04-16T10:54:30.143Z,25.9237
2023-04-16T10:55:34.025Z,25.9522
2023-04-16T10:56:37.908Z,25.9764
2023-04-16T10:57:41.787Z,25.9553
2023-04-16T10:58:45.673Z,25.9411
2023-04-16T10:59:49.902Z,25.9257
2023-04-16T11:00:53.810Z,25.9097
2023-04-16T11:01:57.798Z,25.9477
2023-04-16T11:03:01.768Z,25.9168
2023-04-16T11:04:05.793Z,25.9128
2023-04-16T11:05:09.755Z,25.9406
2023-04-16T11:06:13.676Z,25.9642
2023-04-16T11:07:17.568Z,25.9716
2023-04-16T11:08:21.440Z,25.9943
2023-04-16T11:09:25.347Z,26.0437
2023-04-16T11:10:29.459Z,26.0410
2023-04-16T11:11:33.375Z,26.0227
2023-04-16T11:12:37.399Z,26.0263
2023-04-16T11:13:43.133Z,26.0007
2023-04-16T11:14:42.124Z,25.9752
2023-04-16T11:15:46.274Z,25.9707
2023-04-16T11:16:50.159Z,25.9489
2023-04-16T11:17:54.152Z,25.9655
2023-04-16T11:18:58.027Z,25.9647
2023-04-16T11:20:02.136Z,25.9682
2023-04-16T11:21:06.042Z,25.9704
2023-04-16T11:22:09.960Z,25.9624
2023-04-16T11:23:10.310Z,26.0053
2023-04-16T11:24:14.254Z,25.9947
2023-04-16T11:25:18.135Z,26.0016
2023-04-16T11:26:22.016Z,25.9956
2023-04-16T11:27:25.915Z,25.9744
2023-04-16T11:28:29.801Z,26.0243
2023-04-16T11:29:33.689Z,26.0296
2023-04-16T11:30:37.584Z,26.0216
2023-04-16T11:31:41.495Z,26.0256
2023-04-16T11:32:45.419Z,25.9958
2023-04-16T11:33:49.276Z,26.0027
2023-04-16T11:34:53.387Z,25.9793
2023-04-16T11:35:57.279Z,25.9502
2023-04-16T11:37:01.169Z,25.9624
2023-04-16T11:38:05.317Z,25.9880
2023-04-16T11:39:09.323Z,26.0067
2023-04-16T11:40:13.624Z,25.9874
2023-04-16T11:41:17.480Z,25.9905
2023-04-16T11:42:21.613Z,26.0067
2023-04-16T11:43:25.504Z,26.0143
2023-04-16T11:44:29.386Z,25.9971
2023-04-16T11:45:33.282Z,26.0928
2023-04-16T11:46:37.196Z,26.0570
2023-04-16T11:47:41.123Z,25.9762
2023-04-16T11:48:45.045Z,25.9704
2023-04-16T11:49:48.953Z,25.9849
2023-04-16T11:50:52.826Z,25.9862
2023-04-16T11:51:56.742Z,25.9998
2023-04-16T11:53:00.829Z,26.0686
2023-04-16T11:54:04.733Z,26.0933
2023-04-16T11:55:08.845Z,26.0717
2023-04-16T11:56:12.743Z,26.0412
2023-04-16T11:57:16.652Z,26.0314
2023-04-16T11:58:20.541Z,26.0690
2023-04-16T11:59:21.384Z,26.0992
2023-04-16T12:00:25.270Z,26.1289
2023-04-16T12:01:29.178Z,26.0973
2023-04-16T12:02:33.148Z,26.0570
2023-04-16T12:03:37.339Z,26.0719
2023-04-16T12:04:41.485Z,26.0087
2023-04-16T12:05:45.387Z,26.0801
2023-04-16T12:06:49.293Z,26.1433
2023-04-16T12:07:53.478Z,26.1387
2023-04-16T12:08:57.366Z,26.0957
2023-04-16T12:10:01.276Z,26.0897
2023-04-16T12:11:05.174Z,26.0670
2023-04-16T12:12:09.319Z,25.9971
2023-04-16T12:13:13.218Z,26.0526
2023-04-16T12:14:17.121Z,26.0926
2023-04-16T12:15:21.249Z,26.1315
2023-04-16T12:16:25.157Z,26.1264
2023-04-16T12:17:29.084Z,26.1200
2023-04-16T12:18:32.935Z,26.2014
2023-04-16T12:19:36.842Z,26.2063
2023-04-16T12:20:40.723Z,26.1411
2023-04-16T12:21:44.604Z,26.1064
2023-04-16T12:22:48.751Z,26.1302
2023-04-16T12:23:52.627Z,26.1707
2023-04-16T12:24:56.757Z,26.2330
2023-04-16T12:26:00.646Z,26.2317
2023-04-16T12:27:04.552Z,26.2366
2023-04-16T12:28:08.421Z,26.2074
2023-04-16T12:29:12.313Z,26.1596
2023-04-16T12:30:16.432Z,26.1416
2023-04-16T12:31:20.420Z,26.1202
2023-04-16T12:32:24.349Z,26.1175
2023-04-16T12:33:28.298Z,26.1554
2023-04-16T12:34:46.765Z,26.2279
2023-04-16T12:35:36.929Z,26.2342
2023-04-16T12:36:40.827Z,26.2304
2023-04-16T12:37:44.956Z,26.2263
2023-04-16T12:38:48.862Z,26.2226
2023-04-16T12:39:53.001Z,26.2030
2023-04-16T12:40:57.332Z,26.1709
2023-04-16T12:42:01.334Z,26.1687
2023-04-16T12:43:05.518Z,26.1554
2023-04-16T12:44:09.392Z,26.1369
2023-04-16T12:45:13.278Z,26.1106
2023-04-16T12:46:17.208Z,26.0581
2023-04-16T12:47:21.108Z,26.1062
2023-04-16T12:48:24.964Z,26.1405
2023-04-16T12:49:28.861Z,26.0890
2023-04-16T12:50:32.751Z,26.0757
2023-04-16T12:51:36.646Z,26.1093
2023-04-16T12:52:40.537Z,26.1162